Accueil
METAR-TAF:

METAR-TAF

Aéroports :

Aéroport Châlons-Vatry

Châlons-en-Champagne, France

latitude: 48-46-34N, longitude: 004-11-04E, altitude: 179 m

Observation

Le bulletin a été fait il y a 29 minutes, à 07:00 UTC
Vent 6 kt de nord-est
Température -4°C
Humidité 100%
Pression 1023 hPa
Visibilité: 2800 m
Quelques nuages à une hauteur de 200 ft
brume

METAR: LFOK 240700Z AUTO 04006KT 2800 BR FEW002 M04/M04 Q1023 BECMG 9999 NSW

Heure: 08:29 (07:29 UTC)

Prévision

Le bulletin a été fait il y a 2 heures et 29 minutes, à 05:00 UTC
Prévision valable du 24 à 06 UTC au 25 à 06 UTC
Vent 7 kt de nord-est
Visibilité: 3000 m
brume
Evoluant progressivement
du 24 à 08 UTC au 24 à 11 UTC
Visibilité 10 km ou plus
Evoluant progressivement
du 24 à 22 UTC au 24 à 24 UTC
Visibilité: 0300 m
brouillard

TAF: LFOK 240500Z 2406/2506 05007KT 3000 BR NSC BECMG 2408/2411 9999 NSW BECMG 2422/2424 0300 FG VV///

Observations et prévisions météorologiques de plus de 4000 aéroports (messages METAR et TAF).

Les stations disponibles sont représentées par des disques jaunes et rouges sur la carte.

Passer la souris dessus pour voir le nom de la station.

Cliquer dessus pour voir les observations et prévisions météorologiques.

Pour changer de carte: cliquez sur les boutons verts avec une croix noire pour zoomer, sur le bouton vert avec un tiret pour effectuer un zoom arrière, ou sur les flèches vertes pour les cartes adjacentes.


METAR-TAF: